AirNav   Air Wisconsin pilot careers
 
 981 users online  

M95 Richard Arthur Field Airport
Fayette, Alabama, USA

GOING TO FAYETTE?


FAA INFORMATION EFFECTIVE 12 SEPTEMBER 2019

Location

FAA Identifier: M95
Lat/Long: 33-42-32.7810N 087-48-54.7510W
33-42.546350N 087-48.912517W
33.7091058,-87.8152086
(estimated)
Elevation: 357.4 ft. / 108.9 m (surveyed)
Variation: 03W (2020)
From city: 3 miles NE of FAYETTE, AL
Time zone: UTC -5 (UTC -6 during Standard Time)
Zip code: 35555

Airport Operations

Airport use: Open to the public
Activation date: 10/1946
Control tower: no
ARTCC: MEMPHIS CENTER
FSS: ANNISTON FLIGHT SERVICE STATION
NOTAMs facility: ANB (NOTAM-D service available)
Attendance: MON-FRI 0900-1300
Wind indicator: lighted
Segmented circle: yes
Lights: ACTVT PAPI RWY 01 & 19; MIRL RWY 01/19 AND TWY LGTS - CTAF.
Beacon: white-green (lighted land airport)
Operates sunset to sunrise.

Airport Communications

CTAF/UNICOM: 122.8
COLUMBUS APPROACH: 126.075
COLUMBUS DEPARTURE: 126.075
  • APCH/DEP SVC PRVDD BY MEMPHIS ARTCC ON FREQS 127.1/269.4 (COLUMBUS RCAG) WHEN COLUMBUS APCH CTL CLSD.

Nearby radio navigation aids

VOR radial/distance  VOR name  Freq  Var
LDKr330/30.4CRIMSON VORTAC117.8003E
HABr160/31.0HAMILTON VORTAC110.4002E
CBMr083/31.4CALEDONIA VORTAC115.2000E
IGBr065/37.4BIGBEE VORTAC116.2004E

Airport Services

Fuel available: 100LL JET-A
Parking: tiedowns
Bottled oxygen: NONE
Bulk oxygen: NONE

Runway Information

Runway 1/19

Dimensions: 5009 x 80 ft. / 1527 x 24 m
Surface: asphalt, in fair condition
Weight bearing capacity: 
Single wheel: 15.0
Runway edge lights: medium intensity
RUNWAY 1  RUNWAY 19
Latitude: 33-42.133813N33-42.958893N
Longitude: 087-48.934883W087-48.890157W
Elevation: 330.9 ft.357.4 ft.
Traffic pattern: leftleft
Runway heading: 006 magnetic, 003 true186 magnetic, 183 true
Markings: nonprecision, in fair conditionnonprecision, in fair condition
Visual slope indicator: 2-light PAPI on left (3.00 degrees glide path)2-light PAPI on left (3.00 degrees glide path)
Touchdown point: yes, no lightsyes, no lights
Obstructions: 29 ft. trees, 1210 ft. from runway, 184 ft. right of centerline, 34:1 slope to clear83 ft. trees, 1299 ft. from runway, 178 ft. left of centerline, 13:1 slope to clear

Airport Ownership and Management from official FAA records

Ownership: Publicly-owned
Owner: CITY OF FAYETTE
203 TEMPLE AVE NORTH
FAYETTE, AL 35555
Phone 205-932-5367
Manager: KIP MADISON
100 21ST STREET NORTH EAST
FAYETTE, AL 35555
Phone 205-932-3819

Airport Operational Statistics

Aircraft based on the field: 10
Single engine airplanes: 10
    
Aircraft operations: avg 42/day *
85% transient general aviation
15% local general aviation
* for 12-month period ending 24 February 2017

Additional Remarks

TWY LGTS FOR TWY TURNOFF ONLY.
DEER ON & INVOF ARPT.
FOR CD CTC MEMPHIS ARTCC AT 901-368-8453.

Instrument Procedures

NOTE: All procedures below are presented as PDF files. If you need a reader for these files, you should download the free Adobe Reader.

NOT FOR NAVIGATION. Please procure official charts for flight.
FAA instrument procedures published for use from 12 September 2019 at 0901Z to 10 October 2019 at 0900Z.

 
IAPs - Instrument Approach Procedures
RNAV (GPS) RWY 01   download (208KB)
RNAV (GPS) RWY 19 **CHANGED**   download (163KB)
NOTE: Special Take-Off Minimums/Departure Procedures apply   download (329KB)

Other nearby airports with instrument procedures:

M55 - Lamar County Airport (17 nm NW)
3M8 - North Pickens Airport (22 nm SW)
KHAB - Marion County-Rankin Fite Airport (26 nm N)
KJFX - Walker County Airport-Bevill Field (28 nm NE)
KTCL - Tuscaloosa Regional Airport (31 nm S)
 
Loc | Ops | Rwys | IFR | FBO | Links
Com | Nav | Svcs | Stats | Notes
Area around M95 (Richard Arthur Field Airport)
 
Road maps at: MapQuest Bing Google
 
Aerial photo
WARNING: Photo may not be current or correct
Aerial photo of M95 (Richard Arthur Field Airport)
Taken late October 2007

Do you have a better or more recent aerial photo of Richard Arthur Field Airport that you would like to share? If so, please send us your photo.

 
Sectional chart

 
Airport distance calculator
Flying to Richard Arthur Field Airport? Find the distance to fly.

From to M95

Sunrise and sunset
Times for 16-Sep-2019
 Local
(UTC-5)
 Zulu
(UTC)
Morning civil twilight06:1111:11
Sunrise06:3611:36
Sunset18:5623:56
Evening civil twilight19:2100:21

Current date and time
Zulu (UTC)  17-Sep-2019 00:22:01
Local (UTC-5)  16-Sep-2019 19:22:01
 
METAR
KJFX 
28nm NE 
162355Z AUTO 10SM CLR 28/24 A2999 RMK AO2
KTCL 
31nm S 
162353Z 24003KT 10SM CLR 31/21 A2997 RMK AO2 SLP148 T03060206 10378 20306 56006
KCBM 
32nm W 
162356Z AUTO 00000KT 10SM CLR 30/24 A2998 RMK AO2 SLP153 T02980235 10359 20298 57005 $
KM40 
35nm W 
162355Z AUTO 00000KT 10SM CLR 28/18 A3000 RMK AO2
K1M4 
36nm N 
162356Z AUTO 00000KT 10SM CLR 27/22 A3005 RMK AO2 SLP550 T02720217 10361 20272 56005
KGTR 
41nm W 
162356Z 28003KT 10SM CLR 31/21 A3000 RMK AO2 SLP163 T03110206 10367 20311 56006
TAF
KTCL 
31nm S 
161720Z 1618/1718 03005KT P6SM FEW060 FM170300 00000KT P6SM SKC FM171700 35005KT P6SM FEW060
KCBM 
32nm W 
161700Z 1617/1723 06006KT 9999 FEW050 QNH2990INS TX35/1621Z TN21/1711Z
NOTAMs
Click for the latest NOTAMs
NOTAMs are issued by the DoD/FAA and will open in a separate window not controlled by AirNav.

 

 
 

FBO, Fuel Providers, and Aircraft Ground Support

  
 Business Name 
 
 Contact 
 
 Services / Description 
 
Fuel Prices
 
Comments
  
City of Fayette (FBO) 205-932-3819
no information available

If you are affiliated with City of Fayette (FBO) and would like to show here your services, contact info, web link, logo, and more, click here
100LL Jet A
AS --- $3.47 
SS $4.17 --- 
 Updated 09-Sep-2019
 
   1 read write
AS=Assisted/Self Service
SS=Self service
Update Fuel Prices
 

Would you like to see your business listed on this page?

 If your business provides an interesting product or service to pilots, flight crews, aircraft, or users of the Richard Arthur Field Airport, you should consider listing it here.  To start the listing process, click on the button below
 
Add a business
 

Other Pages about Richard Arthur Field Airport

Update a link
 
Copyright © AirNav, LLC. All rights reserved. Privacy Policy  Contact